Time;durP1;ratioP1;P1;durP2;ratioP2;P2;SDS_P1;SDS_P2;PMS_P1;PMS_P2;Temp;Humidity;BMP_temperature;BMP_pressure;BME280_temperature;BME280_humidity;BME280_pressure;Samples;Min_cycle;Max_cycle;Signal;HPM_P1;HPM_P2
2021/10/04 00:02:24;;;;;;;29.48;17.67;;;;;;;5.85;100.00;102871.59;2577756;55;20114;-70
2021/10/04 00:04:52;;;;;;;27.20;16.33;;;;;;;5.83;100.00;102868.09;2583145;55;20543;-69
2021/10/04 00:07:21;;;;;;;33.88;18.62;;;;;;;5.82;100.00;102866.38;2582929;55;20117;-72
2021/10/04 00:09:49;;;;;;;28.85;14.93;;;;;;;5.85;100.00;102871.59;2582918;55;20510;-72
2021/10/04 00:12:16;;;;;;;32.42;19.60;;;;;;;5.82;100.00;102867.22;2582969;55;20191;-69
2021/10/04 00:14:43;;;;;;;30.90;18.85;;;;;;;5.85;100.00;102859.19;2583630;55;20145;-72
2021/10/04 00:17:10;;;;;;;30.48;19.10;;;;;;;5.83;100.00;102868.09;2583766;55;20113;-69
2021/10/04 00:19:38;;;;;;;28.23;18.23;;;;;;;5.80;100.00;102868.16;2584048;55;20136;-69
2021/10/04 00:22:06;;;;;;;29.87;15.23;;;;;;;5.90;100.00;102861.75;2584003;55;20124;-70
2021/10/04 00:24:33;;;;;;;30.02;17.50;;;;;;;5.89;100.00;102867.09;2583910;55;20484;-72
2021/10/04 00:27:01;;;;;;;23.75;15.13;;;;;;;5.88;100.00;102868.88;2584032;55;20113;-72
2021/10/04 00:29:28;;;;;;;27.23;16.87;;;;;;;5.90;100.00;102864.41;2583748;55;20120;-72
2021/10/04 00:31:55;;;;;;;29.33;18.17;;;;;;;5.87;100.00;102861.81;2583717;55;20165;-70
2021/10/04 00:34:22;;;;;;;27.45;18.55;;;;;;;5.81;100.00;102870.78;2583862;55;20108;-69
2021/10/04 00:36:49;;;;;;;29.10;17.67;;;;;;;5.77;100.00;102858.50;2583881;55;20522;-72
2021/10/04 00:39:17;;;;;;;26.85;16.92;;;;;;;5.75;100.00;102859.44;2583811;55;20105;-72
2021/10/04 00:41:45;;;;;;;31.02;18.73;;;;;;;5.66;100.00;102865.78;2583826;55;20121;-69
2021/10/04 00:44:12;;;;;;;32.03;18.73;;;;;;;5.67;100.00;102867.56;2583659;55;20124;-72
2021/10/04 00:46:39;;;;;;;29.67;18.30;;;;;;;5.65;100.00;102862.28;2583692;55;20101;-70
2021/10/04 00:49:07;;;;;;;29.70;18.10;;;;;;;5.72;100.00;102860.37;2583881;55;20120;-70
2021/10/04 00:51:35;;;;;;;28.80;16.00;;;;;;;5.69;100.00;102858.66;2583930;55;20161;-72
2021/10/04 00:54:03;;;;;;;30.55;19.23;;;;;;;5.58;100.00;102860.63;2578646;55;20135;-72
2021/10/04 00:56:32;;;;;;;31.67;17.73;;;;;;;5.58;100.00;102863.28;2583698;55;20139;-71
2021/10/04 00:58:59;;;;;;;31.73;18.75;;;;;;;5.54;100.00;102853.66;2583707;55;20132;-71
2021/10/04 01:01:28;;;;;;;30.52;18.83;;;;;;;5.52;100.00;102851.03;2583633;55;20121;-69
2021/10/04 01:03:56;;;;;;;31.67;19.23;;;;;;;5.48;100.00;102859.06;2583695;55;20112;-69
2021/10/04 01:06:24;;;;;;;33.33;19.17;;;;;;;5.41;100.00;102851.28;2583698;55;20114;-69
2021/10/04 01:08:51;;;;;;;31.52;18.73;;;;;;;5.35;100.00;102846.09;2583543;55;20640;-69
2021/10/04 01:11:19;;;;;;;33.63;17.25;;;;;;;5.35;100.00;102845.19;2583491;55;20109;-70
2021/10/04 01:13:47;;;;;;;31.12;18.05;;;;;;;5.29;100.00;102833.84;2583839;55;20120;-72
2021/10/04 01:16:15;;;;;;;31.48;19.77;;;;;;;5.26;100.00;102838.31;2583748;55;20495;-71
2021/10/04 01:18:43;;;;;;;28.95;18.70;;;;;;;5.26;100.00;102836.56;2583800;55;20139;-70
2021/10/04 01:21:10;;;;;;;30.17;18.27;;;;;;;5.21;100.00;102832.22;2583634;55;20220;-72
2021/10/04 01:23:37;;;;;;;35.38;17.92;;;;;;;5.16;100.00;102824.34;2583515;55;20665;-72
2021/10/04 01:26:05;;;;;;;37.20;20.50;;;;;;;5.15;100.00;102831.44;2583626;55;20545;-72
2021/10/04 01:28:32;;;;;;;37.13;20.95;;;;;;;5.11;100.00;102829.75;2583600;55;20473;-72
2021/10/04 01:30:59;;;;;;;30.52;19.55;;;;;;;5.06;100.00;102823.66;2583610;55;20138;-69
2021/10/04 01:33:27;;;;;;;33.00;20.58;;;;;;;5.04;100.00;102817.53;2583655;55;20113;-70
2021/10/04 01:35:54;;;;;;;37.63;21.48;;;;;;;5.00;100.00;102814.06;2583375;55;20120;-71
2021/10/04 01:38:22;;;;;;;36.65;21.10;;;;;;;4.98;100.00;102821.16;2583315;55;20514;-71
2021/10/04 01:40:49;;;;;;;39.58;23.75;;;;;;;4.90;100.00;102812.50;2583453;55;20115;-72
2021/10/04 01:43:16;;;;;;;43.30;24.33;;;;;;;4.93;100.00;102823.00;2583426;55;20097;-69
2021/10/04 01:45:44;;;;;;;43.63;25.12;;;;;;;4.90;100.00;102817.78;2583519;55;20124;-72
2021/10/04 01:48:11;;;;;;;47.58;26.42;;;;;;;4.82;100.00;102801.16;2583555;55;20135;-70
2021/10/04 01:50:39;;;;;;;49.40;25.50;;;;;;;4.85;100.00;102815.22;2583382;55;20120;-69
2021/10/04 01:53:08;;;;;;;47.35;25.58;;;;;;;4.80;100.00;102808.25;2583482;55;20120;-72
2021/10/04 01:55:36;;;;;;;42.53;23.52;;;;;;;4.83;100.00;102810.84;2583534;55;20129;-69
2021/10/04 01:58:04;;;;;;;42.03;23.73;;;;;;;4.83;100.00;102811.72;2583554;55;20120;-69
2021/10/04 02:00:32;;;;;;;44.60;25.08;;;;;;;4.71;100.00;102817.22;2583554;55;20615;-70
2021/10/04 02:02:59;;;;;;;40.25;22.87;;;;;;;4.69;100.00;102813.72;2583247;55;20121;-72
2021/10/04 02:05:27;;;;;;;42.70;24.42;;;;;;;4.59;100.00;102808.59;2583421;55;20116;-72
2021/10/04 02:07:55;;;;;;;41.72;23.52;;;;;;;4.60;100.00;102820.06;2583246;55;20565;-73
2021/10/04 02:10:25;;;;;;;41.40;23.73;;;;;;;4.64;100.00;102805.00;2583389;55;20097;-73
2021/10/04 02:12:55;;;;;;;39.22;21.02;;;;;;;4.60;100.00;102812.97;2583274;55;20124;-69
2021/10/04 02:15:23;;;;;;;44.22;24.00;;;;;;;4.52;100.00;102804.31;2583342;55;20498;-72
2021/10/04 02:17:50;;;;;;;35.53;20.17;;;;;;;4.51;100.00;102813.16;2583367;55;20134;-69
2021/10/04 02:20:20;;;;;;;40.78;23.33;;;;;;;4.49;100.00;102812.28;2583336;55;20644;-72
2021/10/04 02:22:48;;;;;;;39.72;21.67;;;;;;;4.52;100.00;102806.97;2583387;55;20120;-70
2021/10/04 02:25:16;;;;;;;38.95;21.52;;;;;;;4.49;100.00;102814.91;2583437;55;20499;-72
2021/10/04 02:27:44;;;;;;;39.45;21.87;;;;;;;4.48;100.00;102813.19;2583231;55;20538;-70
2021/10/04 02:30:19;;;;;;;42.05;22.58;;;;;;;4.52;100.00;102825.47;2583368;55;20188;-72
2021/10/04 02:32:47;;;;;;;36.30;21.50;;;;;;;4.45;100.00;102813.25;2583471;55;20135;-70
2021/10/04 02:35:14;;;;;;;42.35;23.02;;;;;;;4.41;100.00;102822.09;2583280;55;20124;-70
2021/10/04 02:37:42;;;;;;;41.58;20.85;;;;;;;4.42;100.00;102815.94;2583161;55;20618;-71
2021/10/04 02:40:11;;;;;;;40.30;20.88;;;;;;;4.40;100.00;102817.72;2583440;55;20668;-69
2021/10/04 02:42:40;;;;;;;41.35;22.67;;;;;;;4.34;100.00;102812.53;2583196;55;20638;-72
2021/10/04 02:45:10;;;;;;;38.83;20.62;;;;;;;4.34;100.00;102823.09;2583289;55;20674;-69
2021/10/04 02:47:38;;;;;;;36.45;21.42;;;;;;;4.23;100.00;102816.22;2583191;55;20149;-69
2021/10/04 02:50:08;;;;;;;34.53;20.33;;;;;;;4.20;100.00;102815.38;2583231;55;20119;-69
2021/10/04 02:52:35;;;;;;;38.00;21.37;;;;;;;4.16;100.00;102814.53;2582968;55;20156;-72
2021/10/04 02:55:03;;;;;;;35.92;20.45;;;;;;;4.14;100.00;102819.00;2583462;55;20109;-69
2021/10/04 02:57:30;;;;;;;39.45;21.52;;;;;;;4.14;100.00;102826.91;2583092;55;20112;-69
2021/10/04 02:59:57;;;;;;;38.58;21.77;;;;;;;4.06;100.00;102812.94;2583193;55;20112;-72
2021/10/04 03:02:24;;;;;;;38.40;19.73;;;;;;;4.04;100.00;102820.88;2583293;55;20123;-71
2021/10/04 03:04:52;;;;;;;38.35;20.75;;;;;;;3.98;100.00;102820.97;2580943;55;20105;-69
2021/10/04 03:07:19;;;;;;;37.00;19.77;;;;;;;4.02;100.00;102828.84;2579782;55;20127;-72
2021/10/04 03:09:46;;;;;;;38.85;20.48;;;;;;;3.98;100.00;102831.53;2578355;55;20123;-72
2021/10/04 03:12:14;;;;;;;43.40;21.35;;;;;;;3.95;100.00;102832.44;2577958;55;20639;-72
2021/10/04 03:14:41;;;;;;;41.85;23.40;;;;;;;3.89;100.00;102845.72;2578082;55;20109;-70
2021/10/04 03:17:08;;;;;;;38.38;20.77;;;;;;;3.86;100.00;102832.56;2577931;55;20118;-71
2021/10/04 03:19:35;;;;;;;38.50;19.90;;;;;;;3.90;100.00;102844.81;2577737;55;20623;-70
2021/10/04 03:22:04;;;;;;;35.67;19.80;;;;;;;3.84;100.00;102842.28;2572840;55;20518;-71
2021/10/04 03:24:31;;;;;;;38.30;21.50;;;;;;;3.79;100.00;102842.34;2578011;55;20144;-72
2021/10/04 03:26:58;;;;;;;37.75;21.83;;;;;;;3.80;100.00;102848.47;2577982;55;20125;-69
2021/10/04 03:29:26;;;;;;;41.28;20.27;;;;;;;3.75;100.00;102841.50;2577931;55;20119;-69
2021/10/04 03:31:53;;;;;;;37.20;19.90;;;;;;;3.76;100.00;102840.59;2578052;55;20241;-70
2021/10/04 03:34:20;;;;;;;41.95;20.92;;;;;;;3.76;100.00;102837.09;2577836;55;20659;-71
2021/10/04 03:36:47;;;;;;;34.22;18.23;;;;;;;3.76;100.00;102845.88;2577860;55;20143;-71
2021/10/04 03:39:15;;;;;;;38.38;21.40;;;;;;;3.72;100.00;102841.53;2577909;55;20127;-71
2021/10/04 03:41:42;;;;;;;38.63;20.50;;;;;;;3.72;100.00;102838.91;2577902;55;20502;-71
2021/10/04 03:44:10;;;;;;;38.28;21.73;;;;;;;3.71;100.00;102837.16;2577816;55;20498;-69
2021/10/04 03:46:37;;;;;;;41.58;20.15;;;;;;;3.78;100.00;102842.34;2577643;55;20117;-71
2021/10/04 03:49:04;;;;;;;39.45;20.35;;;;;;;3.72;100.00;102835.38;2578137;55;20131;-69
2021/10/04 03:51:31;;;;;;;40.38;21.10;;;;;;;3.73;100.00;102856.50;2578860;55;20139;-70
2021/10/04 03:53:58;;;;;;;37.75;19.75;;;;;;;3.76;100.00;102847.66;2578765;55;20127;-71
2021/10/04 03:56:26;;;;;;;49.13;23.85;;;;;;;3.65;100.00;102847.78;2578917;55;20113;-69
2021/10/04 03:58:53;;;;;;;44.65;24.55;;;;;;;3.64;100.00;102853.06;2578761;55;20102;-71
2021/10/04 04:01:21;;;;;;;48.17;23.00;;;;;;;3.60;100.00;102858.41;2578727;55;20124;-72
2021/10/04 04:03:51;;;;;;;41.70;22.17;;;;;;;3.67;100.00;102853.91;2578813;55;20124;-70
2021/10/04 04:06:18;;;;;;;41.05;21.83;;;;;;;3.65;100.00;102860.97;2578598;55;20198;-72
2021/10/04 04:08:46;;;;;;;43.40;24.05;;;;;;;3.64;100.00;102855.72;2578807;55;20135;-72
2021/10/04 04:11:13;;;;;;;40.50;22.62;;;;;;;3.65;100.00;102850.44;2578612;55;20142;-69
2021/10/04 04:13:41;;;;;;;42.53;21.90;;;;;;;3.68;100.00;102849.53;2578372;55;20109;-71
2021/10/04 04:16:09;;;;;;;43.78;24.55;;;;;;;3.63;100.00;102844.28;2578624;55;20114;-72
2021/10/04 04:18:37;;;;;;;47.92;23.35;;;;;;;3.66;100.00;102846.87;2578764;55;20684;-69
2021/10/04 04:21:04;;;;;;;42.45;22.60;;;;;;;3.65;100.00;102842.50;2578653;55;20139;-69
2021/10/04 04:23:31;;;;;;;46.30;23.48;;;;;;;3.66;100.00;102846.00;2578692;55;20130;-71
2021/10/04 04:25:59;;;;;;;45.65;24.75;;;;;;;3.63;100.00;102852.22;2578658;55;20125;-70
2021/10/04 04:28:26;;;;;;;49.95;25.20;;;;;;;3.62;100.00;102858.38;2579002;55;20109;-72
2021/10/04 04:30:53;;;;;;;43.92;23.60;;;;;;;3.61;100.00;102854.84;2571986;55;20729;-71
2021/10/04 04:33:21;;;;;;;51.85;25.50;;;;;;;3.60;100.00;102857.50;2579162;55;20132;-69
2021/10/04 04:35:48;;;;;;;35.05;19.40;;;;;;;3.62;100.00;102853.09;2572259;55;20109;-69
2021/10/04 04:38:15;;;;;;;41.72;23.45;;;;;;;3.60;100.00;102862.78;2578123;55;20530;-69
2021/10/04 04:40:43;;;;;;;46.60;23.65;;;;;;;3.57;100.00;102862.84;2578325;55;20097;-72
2021/10/04 04:43:10;;;;;;;47.58;24.35;;;;;;;3.55;100.00;102854.06;2576780;55;20118;-72
2021/10/04 04:45:37;;;;;;;36.80;20.42;;;;;;;3.58;100.00;102860.19;2578109;55;20503;-72
2021/10/04 04:48:06;;;;;;;46.88;23.10;;;;;;;3.57;100.00;102852.28;2577809;55;20131;-72
2021/10/04 04:50:33;;;;;;;42.25;19.33;;;;;;;3.58;100.00;102861.94;2577058;55;20121;-72
2021/10/04 04:53:00;;;;;;;39.88;23.62;;;;;;;3.57;100.00;102858.44;2577891;55;20113;-72
2021/10/04 04:55:27;;;;;;;42.40;22.00;;;;;;;3.60;100.00;102865.44;2577495;55;20172;-71
2021/10/04 04:57:54;;;;;;;31.33;18.20;;;;;;;3.64;100.00;102868.91;2577869;55;20127;-69
2021/10/04 05:00:21;;;;;;;44.45;22.90;;;;;;;3.61;100.00;102875.97;2578862;55;20134;-69
2021/10/04 05:02:49;;;;;;;32.95;17.73;;;;;;;3.66;100.00;102872.41;2574178;55;20135;-70
2021/10/04 05:05:18;;;;;;;37.33;21.48;;;;;;;3.66;100.00;102870.66;2578516;55;20828;-73
2021/10/04 05:07:46;;;;;;;37.65;19.67;;;;;;;3.64;100.00;102861.88;2578486;55;20124;-72
2021/10/04 05:10:13;;;;;;;40.22;22.13;;;;;;;3.69;100.00;102872.38;2578144;55;20117;-71
2021/10/04 05:12:41;;;;;;;38.35;22.17;;;;;;;3.68;100.00;102871.50;2578023;55;20128;-71
2021/10/04 05:15:09;;;;;;;38.40;19.65;;;;;;;3.73;100.00;102874.97;2578879;55;20144;-71
2021/10/04 05:17:36;;;;;;;40.03;22.17;;;;;;;3.71;100.00;102879.41;2578564;55;20143;-69
2021/10/04 05:20:04;;;;;;;40.40;21.75;;;;;;;3.68;100.00;102879.41;2578802;55;20127;-69
2021/10/04 05:22:35;;;;;;;39.50;22.15;;;;;;;3.72;100.00;102881.16;2575631;55;20113;-70
2021/10/04 05:25:03;;;;;;;39.07;21.80;;;;;;;3.81;100.00;102884.56;2583606;55;20113;-73
2021/10/04 05:27:30;;;;;;;33.05;19.37;;;;;;;3.87;100.00;102887.13;2583533;55;20586;-70
2021/10/04 05:29:57;;;;;;;40.30;21.15;;;;;;;3.88;100.00;102878.31;2579773;55;20121;-73
2021/10/04 05:32:25;;;;;;;39.92;21.50;;;;;;;3.86;100.00;102880.09;2577856;55;20121;-69
2021/10/04 05:34:53;;;;;;;35.67;21.87;;;;;;;3.88;100.00;102883.59;2576507;55;20139;-69
2021/10/04 05:37:20;;;;;;;44.42;23.45;;;;;;;3.86;100.00;102883.63;2576552;55;20136;-69
2021/10/04 05:39:48;;;;;;;43.05;24.23;;;;;;;3.86;100.00;102886.28;2576669;55;20140;-73
2021/10/04 05:42:15;;;;;;;42.15;21.87;;;;;;;3.84;100.00;102887.19;2576695;55;20120;-73
2021/10/04 05:44:45;;;;;;;45.53;22.52;;;;;;;3.84;100.00;102889.81;2576702;55;20117;-73
2021/10/04 05:47:13;;;;;;;39.95;22.55;;;;;;;3.81;100.00;102898.66;2576304;55;20171;-70
2021/10/04 05:49:40;;;;;;;41.85;21.98;;;;;;;3.82;100.00;102907.44;2576463;55;20533;-72
2021/10/04 05:52:07;;;;;;;31.37;17.30;;;;;;;3.89;100.00;102890.63;2576431;55;20137;-72
2021/10/04 05:54:34;;;;;;;38.45;19.27;;;;;;;3.88;100.00;102888.88;2576366;55;20123;-72
2021/10/04 05:57:02;;;;;;;41.10;21.52;;;;;;;3.94;100.00;102894.09;2577337;55;20101;-70
2021/10/04 05:59:29;;;;;;;36.80;21.50;;;;;;;3.89;100.00;102887.97;2578261;55;20160;-68
2021/10/04 06:01:57;;;;;;;40.85;20.92;;;;;;;3.87;100.00;102893.31;2578450;55;20135;-72
2021/10/04 06:04:24;;;;;;;39.58;20.77;;;;;;;3.87;100.00;102892.41;2578300;55;20112;-71
2021/10/04 06:06:51;;;;;;;39.65;20.30;;;;;;;3.91;100.00;102904.72;2578517;55;20110;-68
2021/10/04 06:09:18;;;;;;;43.25;22.50;;;;;;;3.89;100.00;102895.91;2578265;55;20161;-72
2021/10/04 06:11:46;;;;;;;39.28;21.48;;;;;;;3.97;100.00;102890.56;2577885;55;20158;-68
2021/10/04 06:14:13;;;;;;;35.25;18.20;;;;;;;4.03;100.00;102899.25;2578354;55;20158;-72
2021/10/04 06:16:40;;;;;;;51.10;21.45;;;;;;;4.08;100.00;102898.31;2578212;55;20109;-72
2021/10/04 06:19:08;;;;;;;36.55;20.00;;;;;;;4.08;100.00;102899.22;2578207;55;20109;-68
2021/10/04 06:21:35;;;;;;;39.67;19.90;;;;;;;4.16;100.00;102893.81;2578180;55;20108;-68
2021/10/04 06:24:02;;;;;;;39.50;20.83;;;;;;;4.22;100.00;102883.19;2578121;55;20801;-68
2021/10/04 06:26:29;;;;;;;46.63;27.10;;;;;;;4.25;100.00;102898.97;2578098;55;20153;-71
2021/10/04 06:28:57;;;;;;;41.28;21.35;;;;;;;4.19;100.00;102904.34;2578119;55;20117;-67
2021/10/04 06:31:26;;;;;;;32.05;19.25;;;;;;;4.26;100.00;102900.72;2578194;55;20679;-67
2021/10/04 06:33:54;;;;;;;36.35;18.87;;;;;;;4.29;100.00;102900.66;2572963;55;20167;-69
2021/10/04 06:36:21;;;;;;;205.18;124.15;;;;;;;4.35;100.00;102893.56;2578233;55;20188;-71
2021/10/04 06:38:48;;;;;;;35.08;19.37;;;;;;;4.44;100.00;102896.09;2578150;55;20127;-72
2021/10/04 06:41:15;;;;;;;35.78;20.33;;;;;;;4.51;100.00;102889.81;2578164;55;20116;-69
2021/10/04 06:43:42;;;;;;;50.35;20.98;;;;;;;4.53;100.00;102890.66;2578221;55;20167;-69
2021/10/04 06:46:09;;;;;;;33.70;18.12;;;;;;;4.54;100.00;102900.34;2578165;55;20094;-70
2021/10/04 06:48:39;;;;;;;28.10;15.07;;;;;;;4.63;100.00;102898.47;2578133;55;20120;-67
2021/10/04 06:51:06;;;;;;;41.00;19.62;;;;;;;4.64;100.00;102900.19;2577936;55;20506;-67
2021/10/04 06:53:34;;;;;;;32.50;16.98;;;;;;;4.58;100.00;102885.31;2578014;55;20158;-73
2021/10/04 06:56:01;;;;;;;33.90;17.50;;;;;;;4.63;100.00;102896.66;2578119;55;20127;-72
2021/10/04 06:58:28;;;;;;;28.70;16.02;;;;;;;4.74;100.00;102892.09;2578054;55;20604;-72
2021/10/04 07:00:55;;;;;;;32.85;17.60;;;;;;;4.79;100.00;102894.66;2577949;55;20117;-69
2021/10/04 07:03:22;;;;;;;27.58;16.12;;;;;;;4.83;100.00;102891.09;2578190;55;20538;-68
2021/10/04 07:05:51;;;;;;;30.12;17.67;;;;;;;4.87;100.00;102892.78;2577971;55;20642;-73
2021/10/04 07:08:18;;;;;;;34.70;18.92;;;;;;;4.93;100.00;102901.53;2577824;55;20131;-73
2021/10/04 07:10:46;;;;;;;27.95;16.62;;;;;;;5.03;100.00;102900.47;2577985;55;20101;-68
2021/10/04 07:13:13;;;;;;;33.38;18.55;;;;;;;5.05;100.00;102895.13;2578040;55;20117;-72
2021/10/04 07:15:40;;;;;;;30.37;16.75;;;;;;;5.08;100.00;102895.97;2577962;55;20121;-69
2021/10/04 07:18:08;;;;;;;30.55;15.90;;;;;;;5.15;100.00;102896.72;2577757;55;20118;-71
2021/10/04 07:20:35;;;;;;;30.73;17.05;;;;;;;5.26;100.00;102893.91;2578010;55;20097;-73
2021/10/04 07:23:04;;;;;;;26.87;16.67;;;;;;;5.34;100.00;102893.75;2577962;55;20143;-69
2021/10/04 07:42:31;;;;;;;22.83;13.02;;;;;;;5.89;100.00;102905.06;2589484;47;20123;-69
2021/10/04 07:44:59;;;;;;;29.05;16.48;;;;;;;5.94;100.00;102908.50;2587557;55;20523;-72
2021/10/04 07:47:26;;;;;;;28.83;15.35;;;;;;;5.94;100.00;102912.91;2587360;55;20161;-69
2021/10/04 07:49:53;;;;;;;26.80;16.83;;;;;;;5.84;100.00;102906.94;2587593;55;20666;-72
2021/10/04 07:52:21;;;;;;;27.42;15.27;;;;;;;5.81;100.00;102909.62;2587508;55;20114;-70
2021/10/04 07:54:48;;;;;;;25.73;14.87;;;;;;;5.90;100.00;102912.09;2587554;55;20117;-70
2021/10/04 07:57:15;;;;;;;31.45;18.50;;;;;;;5.97;100.00;102908.44;2587596;55;20109;-69
2021/10/04 07:59:43;;;;;;;40.00;18.95;;;;;;;5.76;100.00;102915.03;2587549;55;20120;-69
2021/10/04 08:02:11;;;;;;;22.62;13.43;;;;;;;5.86;100.00;102918.37;2587718;55;20112;-70
2021/10/04 08:04:39;;;;;;;22.52;11.90;;;;;;;5.77;100.00;102890.31;2586895;55;20473;-74
2021/10/04 08:07:07;;;;;;;23.87;14.80;;;;;;;5.90;100.00;102912.09;2584558;55;20113;-74
2021/10/04 08:09:34;;;;;;;22.98;13.50;;;;;;;6.02;100.00;102904.84;2584767;55;20113;-74
2021/10/04 08:12:01;;;;;;;21.48;10.90;;;;;;;6.21;100.00;102905.31;2584493;55;20120;-73
2021/10/04 08:14:28;;;;;;;25.75;15.93;;;;;;;6.24;100.00;102902.59;2584585;55;20116;-73
2021/10/04 08:16:56;;;;;;;21.45;10.77;;;;;;;6.42;100.00;102906.62;2584607;55;20143;-73
2021/10/04 08:19:24;;;;;;;26.12;14.48;;;;;;;6.33;100.00;102904.19;2584783;55;20142;-73
2021/10/04 08:21:51;;;;;;;23.87;12.43;;;;;;;6.49;100.00;102905.56;2584935;55;20119;-74
2021/10/04 08:24:18;;;;;;;22.13;12.93;;;;;;;6.65;100.00;102910.53;2584727;55;20487;-74
2021/10/04 08:26:46;;;;;;;26.12;12.52;;;;;;;6.64;100.00;102914.94;2584765;55;20117;-73
2021/10/04 08:29:14;;;;;;;23.50;11.48;;;;;;;6.80;100.00;102911.94;2584544;55;20127;-73
2021/10/04 08:31:41;;;;;;;23.83;14.02;;;;;;;6.88;100.00;102909.09;2579401;55;20132;-73
2021/10/04 08:34:09;;;;;;;30.20;14.95;;;;;;;7.00;100.00;102911.44;2584692;55;20120;-72
2021/10/04 08:36:37;;;;;;;23.87;12.52;;;;;;;7.20;100.00;102915.38;2584681;55;20134;-72
2021/10/04 08:39:05;;;;;;;26.35;14.15;;;;;;;7.30;100.00;102914.22;2584596;55;20135;-72
2021/10/04 08:41:34;;;;;;;24.77;12.48;;;;;;;7.50;100.00;102920.78;2583680;55;20120;-72
2021/10/04 08:44:05;;;;;;;21.00;9.68;;;;;;;7.70;100.00;102919.38;2581026;55;20120;-72
2021/10/04 08:46:37;;;;;;;23.45;14.20;;;;;;;7.85;100.00;102920.72;2575931;55;20120;-71
2021/10/04 08:49:04;;;;;;;25.20;13.98;;;;;;;8.05;100.00;102915.72;2581383;55;20129;-69
2021/10/04 08:51:32;;;;;;;17.25;10.70;;;;;;;8.16;100.00;102912.75;2581220;55;20101;-71
2021/10/04 08:54:00;;;;;;;22.05;13.70;;;;;;;8.28;100.00;102913.28;2581167;55;20125;-72
2021/10/04 08:56:27;;;;;;;27.37;14.63;;;;;;;8.31;100.00;102907.87;2575894;55;20113;-71
2021/10/04 08:58:54;;;;;;;22.20;14.70;;;;;;;8.47;100.00;102898.50;2581173;55;20165;-72
2021/10/04 09:01:22;;;;;;;77.35;48.25;;;;;;;8.74;100.00;102901.25;2581087;55;20136;-72
2021/10/04 09:03:51;;;;;;;23.75;14.13;;;;;;;8.86;100.00;102904.41;2581152;55;20125;-72
2021/10/04 09:06:29;;;;;;;25.92;13.75;;;;;;;8.82;100.00;102897.44;2580748;55;20526;-72
2021/10/04 09:08:58;;;;;;;26.02;13.48;;;;;;;8.74;100.00;102903.91;2581276;55;20140;-73
2021/10/04 09:11:34;;;;;;;22.27;13.65;;;;;;;8.81;100.00;102906.34;2580894;55;20213;-72
2021/10/04 09:14:04;;;;;;;23.25;13.90;;;;;;;8.87;100.00;102900.84;2581122;55;20730;-72
2021/10/04 09:16:57;;;;;;;28.08;12.73;;;;;;;9.18;100.00;102907.78;2581065;55;20165;-72
2021/10/04 09:19:27;;;;;;;24.08;14.90;;;;;;;9.38;100.00;102907.09;2580934;55;20728;-72
2021/10/04 09:22:12;;;;;;;41.95;15.52;;;;;;;9.59;100.00;102908.13;2580898;55;20630;-72
2021/10/04 09:24:42;;;;;;;23.77;13.38;;;;;;;9.42;100.00;102915.84;2581384;55;20131;-72
2021/10/04 09:27:31;;;;;;;25.83;14.63;;;;;;;9.47;100.00;102900.56;2581036;55;20101;-72
2021/10/04 09:30:00;;;;;;;19.98;11.30;;;;;;;9.46;100.00;102893.50;2583668;55;20127;-71
2021/10/04 09:32:29;;;;;;;25.85;15.07;;;;;;;9.69;99.79;102894.47;2583393;55;20123;-68
2021/10/04 09:35:20;;;;;;;21.87;13.15;;;;;;;9.99;98.14;102896.91;2578374;55;20128;-71
2021/10/04 09:37:49;;;;;;;20.23;11.05;;;;;;;10.14;97.15;102895.44;2583898;55;20128;-70
2021/10/04 09:40:33;;;;;;;26.25;12.10;;;;;;;10.27;97.13;102893.19;2583635;55;20119;-70
2021/10/04 09:43:03;;;;;;;22.40;13.55;;;;;;;10.24;95.19;102885.31;2583715;55;20101;-71
2021/10/04 09:45:31;;;;;;;26.25;14.35;;;;;;;10.28;94.65;102889.59;2583570;55;20663;-69
2021/10/04 09:48:07;;;;;;;21.25;12.82;;;;;;;10.27;94.87;102885.19;2583719;55;20127;-70
2021/10/04 09:50:35;;;;;;;51.88;23.77;;;;;;;10.23;94.76;102887.09;2583548;55;20134;-70
2021/10/04 09:53:04;;;;;;;38.25;17.48;;;;;;;10.26;94.43;102888.78;2583493;55;20102;-69
2021/10/04 09:55:33;;;;;;;17.60;10.93;;;;;;;10.36;94.76;102900.81;2583303;55;20136;-70
2021/10/04 09:58:04;;;;;;;16.73;8.93;;;;;;;10.49;93.02;102895.03;2583243;55;20526;-68
2021/10/04 10:00:35;;;;;;;26.87;12.35;;;;;;;10.42;93.78;102889.94;2583445;55;20677;-68
2021/10/04 10:03:04;;;;;;;19.98;12.07;;;;;;;10.33;93.85;102900.06;2583540;55;20559;-71
2021/10/04 10:05:34;;;;;;;25.37;12.02;;;;;;;10.37;93.28;102902.56;2583438;55;20117;-68
2021/10/04 10:08:01;;;;;;;22.75;15.32;;;;;;;10.49;94.45;102905.69;2583447;55;20110;-67
2021/10/04 10:10:29;;;;;;;25.48;14.90;;;;;;;10.53;94.79;102900.19;2583442;55;20119;-71
2021/10/04 10:12:57;;;;;;;28.30;17.60;;;;;;;10.50;92.95;102894.97;2583499;55;20127;-67
2021/10/04 10:15:27;;;;;;;28.58;17.37;;;;;;;10.58;92.24;102895.53;2583366;55;20120;-68
2021/10/04 10:18:02;;;;;;;15.87;10.40;;;;;;;10.59;92.22;102899.06;2583545;55;20113;-70
2021/10/04 10:20:31;;;;;;;15.40;9.05;;;;;;;10.78;92.27;102892.97;2583220;55;20105;-68
2021/10/04 10:22:59;;;;;;;18.17;11.32;;;;;;;10.73;91.10;102887.81;2583440;55;20120;-68
2021/10/04 10:25:32;;;;;;;21.73;12.73;;;;;;;10.84;91.98;102887.37;2583390;55;20105;-70
2021/10/04 10:28:01;;;;;;;17.27;10.70;;;;;;;10.97;90.70;102875.25;2583339;55;20117;-70
2021/10/04 10:30:29;;;;;;;16.67;9.02;;;;;;;10.94;90.69;102885.19;2583254;55;20561;-70
2021/10/04 10:32:57;;;;;;;15.73;8.65;;;;;;;11.02;90.12;102887.53;2583380;55;20121;-68
2021/10/04 10:35:48;;;;;;;16.45;10.40;;;;;;;10.99;90.72;102876.03;2583363;55;20136;-68
2021/10/04 10:38:16;;;;;;;23.95;12.25;;;;;;;11.09;91.38;102889.00;2583311;55;20140;-70
2021/10/04 10:41:14;;;;;;;15.50;9.70;;;;;;;11.32;90.36;102881.78;2583150;55;20121;-68
2021/10/04 10:44:06;;;;;;;14.57;9.98;;;;;;;11.54;90.13;102865.69;2583413;55;20123;-68
2021/10/04 10:46:51;;;;;;;17.58;9.30;;;;;;;11.76;88.28;102873.59;2578076;55;20120;-68
2021/10/04 10:49:55;;;;;;;15.38;10.70;;;;;;;12.04;86.04;102872.34;2583332;55;20135;-68
2021/10/04 10:52:24;;;;;;;16.98;9.30;;;;;;;11.82;85.17;102876.00;2583415;55;20122;-69
2021/10/04 10:54:52;;;;;;;17.62;10.80;;;;;;;11.66;86.19;102869.59;2583296;55;20141;-70
2021/10/04 10:57:21;;;;;;;20.35;11.30;;;;;;;11.73;87.37;102872.88;2583327;55;20136;-69
2021/10/04 11:00:14;;;;;;;15.63;11.10;;;;;;;11.95;86.18;102873.59;2583256;55;20110;-70
2021/10/04 11:02:52;;;;;;;19.50;11.00;;;;;;;11.96;87.21;102874.47;2583530;55;20644;-67
2021/10/04 11:06:05;;;;;;;21.00;11.63;;;;;;;12.10;85.77;102863.16;2583149;55;20193;-70
2021/10/04 11:09:06;;;;;;;14.23;9.27;;;;;;;12.15;85.00;102834.34;2583047;55;20164;-67
2021/10/04 11:11:34;;;;;;;16.53;11.27;;;;;;;12.18;83.64;102852.09;2560901;56;20122;-68
2021/10/04 11:14:21;;;;;;;16.27;10.13;;;;;;;12.29;83.82;102868.47;2560995;56;20122;-70
2021/10/04 11:17:00;;;;;;;17.05;10.98;;;;;;;12.13;84.79;102854.13;2573786;55;20538;-70
2021/10/04 11:19:35;;;;;;;18.58;11.65;;;;;;;12.24;84.54;102851.81;2583430;55;20127;-68
2021/10/04 11:22:04;;;;;;;18.27;10.60;;;;;;;12.29;83.34;102849.75;2583162;55;20203;-70
2021/10/04 11:24:33;;;;;;;22.42;16.02;;;;;;;12.48;83.86;102849.72;2583228;55;20124;-68
2021/10/04 11:27:01;;;;;;;16.12;10.13;;;;;;;12.37;82.25;102844.91;2577991;55;20135;-69
2021/10/04 11:29:29;;;;;;;15.60;9.65;;;;;;;12.43;81.02;102854.44;2583202;55;20124;-70
2021/10/04 11:31:56;;;;;;;18.50;11.18;;;;;;;12.50;83.04;102841.59;2583053;55;20123;-67
2021/10/04 11:34:24;;;;;;;20.62;12.70;;;;;;;12.72;81.95;102844.09;2583269;55;20127;-69
2021/10/04 11:36:53;;;;;;;16.55;10.43;;;;;;;12.86;79.91;102843.37;2583055;55;20119;-68